createdAt,value
2022-12-26T00:00:16.982Z,17.85
2022-12-26T00:02:48.608Z,14.88
2022-12-26T00:05:20.124Z,17.35
2022-12-26T00:07:51.601Z,17.20
2022-12-26T00:10:23.131Z,13.93
2022-12-26T00:12:54.546Z,14.95
2022-12-26T00:15:45.937Z,16.10
2022-12-26T00:18:17.384Z,16.38
2022-12-26T00:20:48.879Z,15.57
2022-12-26T00:23:20.258Z,16.20
2022-12-26T00:25:51.667Z,16.90
2022-12-26T00:28:23.119Z,15.65
2022-12-26T00:30:54.541Z,17.95
2022-12-26T00:33:25.978Z,15.02
2022-12-26T00:36:12.616Z,17.80
2022-12-26T00:38:45.182Z,18.27
2022-12-26T00:41:18.715Z,18.00
2022-12-26T00:43:50.570Z,16.90
2022-12-26T00:46:22.342Z,18.67
2022-12-26T00:48:54.315Z,18.55
2022-12-26T00:51:26.130Z,18.15
2022-12-26T00:53:57.630Z,17.98
2022-12-26T00:56:29.079Z,20.15
2022-12-26T00:59:00.562Z,23.58
2022-12-26T01:01:32.119Z,20.88
2022-12-26T01:04:03.713Z,23.50
2022-12-26T01:06:35.173Z,20.83
2022-12-26T01:09:06.629Z,21.63
2022-12-26T01:11:38.287Z,19.83
2022-12-26T01:14:15.965Z,20.80
2022-12-26T01:16:47.455Z,20.33
2022-12-26T01:19:18.889Z,18.08
2022-12-26T01:21:50.359Z,21.48
2022-12-26T01:24:21.825Z,17.73
2022-12-26T01:26:53.230Z,21.10
2022-12-26T01:29:24.719Z,21.90
2022-12-26T01:31:56.197Z,19.38
2022-12-26T01:34:27.755Z,21.45
2022-12-26T01:36:59.232Z,17.85
2022-12-26T01:39:30.759Z,17.10
2022-12-26T01:42:02.226Z,20.40
2022-12-26T01:45:01.503Z,21.50
2022-12-26T01:47:46.928Z,19.27
2022-12-26T01:50:40.926Z,21.25
2022-12-26T01:53:18.817Z,19.30
2022-12-26T01:55:58.272Z,17.35
2022-12-26T01:58:37.528Z,16.97
2022-12-26T02:01:10.183Z,15.85
2022-12-26T02:03:44.522Z,17.98
2022-12-26T02:06:17.297Z,17.95
2022-12-26T02:08:48.809Z,16.90
2022-12-26T02:11:34.864Z,18.38
2022-12-26T02:14:07.723Z,16.35
2022-12-26T02:16:40.279Z,16.00
2022-12-26T02:19:44.599Z,15.00
2022-12-26T02:23:00.047Z,15.70
2022-12-26T02:25:59.218Z,14.07
2022-12-26T02:28:58.637Z,15.05
2022-12-26T02:31:30.091Z,14.65
2022-12-26T02:34:15.451Z,15.25
2022-12-26T02:37:01.376Z,15.30
2022-12-26T02:39:46.760Z,18.20
2022-12-26T02:42:29.108Z,16.60
2022-12-26T02:45:29.163Z,14.83
2022-12-26T02:48:10.963Z,14.20
2022-12-26T02:50:55.424Z,14.63
2022-12-26T02:53:39.354Z,14.93
2022-12-26T02:56:24.486Z,14.40
2022-12-26T02:59:06.452Z,15.27
2022-12-26T03:01:42.217Z,15.38
2022-12-26T03:04:17.674Z,14.82
2022-12-26T03:06:55.491Z,14.32
2022-12-26T03:09:32.529Z,15.57
2022-12-26T03:12:24.504Z,14.47
2022-12-26T03:15:01.083Z,15.50
2022-12-26T03:17:42.623Z,13.95
2022-12-26T03:20:18.575Z,13.87
2022-12-26T03:22:58.503Z,13.27
2022-12-26T03:25:36.158Z,12.15
2022-12-26T03:28:08.127Z,12.85
2022-12-26T03:30:39.604Z,11.45
2022-12-26T03:33:11.067Z,13.25
2022-12-26T03:35:42.576Z,11.23
2022-12-26T03:38:17.688Z,10.23
2022-12-26T03:40:56.164Z,10.32
2022-12-26T03:43:30.598Z,10.90
2022-12-26T03:46:10.492Z,11.52
2022-12-26T03:49:02.965Z,9.50
2022-12-26T03:51:56.087Z,11.20
2022-12-26T03:54:45.842Z,11.07
2022-12-26T03:57:21.532Z,9.52
2022-12-26T04:00:01.071Z,11.07
2022-12-26T04:02:35.760Z,8.73
2022-12-26T04:05:11.191Z,8.57
2022-12-26T04:07:56.759Z,9.37
2022-12-26T04:10:35.115Z,8.23
2022-12-26T04:13:18.321Z,9.60
2022-12-26T04:16:04.471Z,8.83
2022-12-26T04:19:06.356Z,8.65
2022-12-26T04:21:45.041Z,7.60
2022-12-26T04:24:24.439Z,9.02
2022-12-26T04:27:00.971Z,8.20
2022-12-26T04:29:32.856Z,8.00
2022-12-26T04:32:07.347Z,7.97
2022-12-26T04:34:56.026Z,9.43
2022-12-26T04:37:29.039Z,8.10
2022-12-26T04:40:03.196Z,7.50
2022-12-26T04:42:36.099Z,8.50
2022-12-26T04:45:10.020Z,5.68
2022-12-26T04:47:41.599Z,5.68
2022-12-26T04:50:13.147Z,6.65
2022-12-26T04:52:44.583Z,7.82
2022-12-26T04:55:17.381Z,6.35
2022-12-26T04:57:48.820Z,7.53
2022-12-26T05:00:20.824Z,4.72
2022-12-26T05:02:52.706Z,6.30
2022-12-26T05:05:24.295Z,4.90
2022-12-26T05:07:55.779Z,4.93
2022-12-26T05:10:28.524Z,4.50
2022-12-26T05:12:59.919Z,5.93
2022-12-26T05:15:31.409Z,5.13
2022-12-26T05:18:02.912Z,4.78
2022-12-26T05:20:34.388Z,7.30
2022-12-26T05:23:15.473Z,5.22
2022-12-26T05:25:47.979Z,6.20
2022-12-26T05:28:19.620Z,4.30
2022-12-26T05:30:51.013Z,4.80
2022-12-26T05:33:22.782Z,4.13
2022-12-26T05:35:54.222Z,4.68
2022-12-26T05:38:25.743Z,7.05
2022-12-26T05:40:57.213Z,5.82
2022-12-26T05:43:28.810Z,6.65
2022-12-26T05:46:00.313Z,5.35
2022-12-26T05:48:31.777Z,6.40
2022-12-26T05:51:04.507Z,3.22
2022-12-26T05:53:35.911Z,6.10
2022-12-26T05:56:11.845Z,4.45
2022-12-26T05:58:43.553Z,5.97
2022-12-26T06:01:20.555Z,6.57
2022-12-26T06:03:54.563Z,6.43
2022-12-26T06:06:27.239Z,5.22
2022-12-26T06:08:58.743Z,4.85
2022-12-26T06:11:30.176Z,7.65
2022-12-26T06:14:01.620Z,5.70
2022-12-26T06:16:33.114Z,4.80
2022-12-26T06:19:04.816Z,6.63
2022-12-26T06:21:36.546Z,5.35
2022-12-26T06:24:08.110Z,5.70
2022-12-26T06:26:40.052Z,6.37
2022-12-26T06:29:11.564Z,6.33
2022-12-26T06:31:43.032Z,5.68
2022-12-26T06:34:14.579Z,6.13
2022-12-26T06:36:46.010Z,7.35
2022-12-26T06:39:17.410Z,5.50
2022-12-26T06:41:48.882Z,6.00
2022-12-26T06:44:20.315Z,6.82
2022-12-26T06:46:51.831Z,7.93
2022-12-26T06:49:27.430Z,5.50
2022-12-26T06:52:03.904Z,8.98
2022-12-26T06:54:35.380Z,5.13
2022-12-26T06:57:07.049Z,6.43
2022-12-26T06:59:38.490Z,7.18
2022-12-26T07:02:10.855Z,7.00
2022-12-26T07:04:42.405Z,9.82
2022-12-26T07:07:13.904Z,10.23
2022-12-26T07:09:45.301Z,7.22
2022-12-26T07:12:16.717Z,7.10
2022-12-26T07:14:48.794Z,7.20
2022-12-26T07:17:20.207Z,7.03
2022-12-26T07:19:51.623Z,10.13
2022-12-26T07:22:23.076Z,7.20
2022-12-26T07:24:54.527Z,8.98
2022-12-26T07:27:26.203Z,12.35
2022-12-26T07:29:57.653Z,8.93
2022-12-26T07:32:29.114Z,8.25
2022-12-26T07:35:00.586Z,7.75
2022-12-26T07:37:32.019Z,8.07
2022-12-26T07:40:04.084Z,7.63
2022-12-26T07:42:35.566Z,6.63
2022-12-26T07:45:07.731Z,7.97
2022-12-26T07:47:39.168Z,9.98
2022-12-26T07:50:10.555Z,10.27
2022-12-26T07:52:41.986Z,6.82
2022-12-26T07:55:13.455Z,9.27
2022-12-26T07:57:49.434Z,9.15
2022-12-26T08:00:22.621Z,8.50
2022-12-26T08:02:54.172Z,10.63
2022-12-26T08:05:25.808Z,9.33
2022-12-26T08:07:57.267Z,11.40
2022-12-26T08:10:28.699Z,10.80
2022-12-26T08:13:00.187Z,9.88
2022-12-26T08:15:31.603Z,11.63
2022-12-26T08:18:03.065Z,13.10
2022-12-26T08:20:34.492Z,11.43
2022-12-26T08:23:05.927Z,10.38
2022-12-26T08:25:37.340Z,8.88
2022-12-26T08:28:08.837Z,12.07
2022-12-26T08:30:41.396Z,10.70
2022-12-26T08:33:13.384Z,12.40
2022-12-26T08:35:44.785Z,15.35
2022-12-26T08:38:16.245Z,13.20
2022-12-26T08:40:54.054Z,17.23
2022-12-26T08:46:18.752Z,19.30
2022-12-26T08:48:51.059Z,23.33
2022-12-26T08:51:24.872Z,26.30
2022-12-26T08:53:56.345Z,22.90
2022-12-26T08:56:28.211Z,21.92
2022-12-26T08:58:59.645Z,18.05
2022-12-26T09:01:31.790Z,18.65
2022-12-26T09:04:04.575Z,17.00
2022-12-26T09:06:38.801Z,16.02
2022-12-26T09:09:12.307Z,17.75
2022-12-26T09:11:44.207Z,17.33
2022-12-26T09:14:15.722Z,11.30
2022-12-26T09:16:50.750Z,13.85
2022-12-26T09:19:23.594Z,13.82
2022-12-26T09:21:55.835Z,15.03
2022-12-26T09:24:27.732Z,9.70
2022-12-26T09:26:59.156Z,12.38
2022-12-26T09:29:30.578Z,13.32
2022-12-26T09:32:02.017Z,13.32
2022-12-26T09:34:33.513Z,14.38
2022-12-26T09:37:04.999Z,14.90
2022-12-26T09:39:36.400Z,13.35
2022-12-26T09:42:26.631Z,14.77
2022-12-26T09:45:17.161Z,14.33
2022-12-26T09:48:14.131Z,13.50
2022-12-26T09:50:50.471Z,10.75
2022-12-26T09:53:31.794Z,14.38
2022-12-26T09:56:10.897Z,12.70
2022-12-26T09:59:00.628Z,13.63
2022-12-26T10:01:36.163Z,11.27
2022-12-26T10:04:22.262Z,11.25
2022-12-26T10:07:31.429Z,12.43
2022-12-26T10:10:24.840Z,12.02
2022-12-26T10:13:14.767Z,11.15
2022-12-26T10:16:00.005Z,10.60
2022-12-26T10:18:56.978Z,15.07
2022-12-26T10:21:49.488Z,12.07
2022-12-26T10:24:25.231Z,10.18
2022-12-26T10:27:13.019Z,8.23
2022-12-26T10:29:54.015Z,10.13
2022-12-26T10:32:34.467Z,6.80
2022-12-26T10:35:19.622Z,10.82
2022-12-26T10:37:53.464Z,8.48
2022-12-26T10:40:42.287Z,11.73
2022-12-26T10:43:28.219Z,10.33
2022-12-26T10:46:34.268Z,8.30
2022-12-26T10:49:10.849Z,10.50
2022-12-26T10:51:42.446Z,6.85
2022-12-26T10:54:17.667Z,7.28
2022-12-26T10:56:51.589Z,7.60
2022-12-26T10:59:35.413Z,5.75
2022-12-26T11:02:26.833Z,9.03
2022-12-26T11:07:54.702Z,6.80
2022-12-26T11:10:29.192Z,7.65
2022-12-26T11:13:09.696Z,7.80
2022-12-26T11:15:48.663Z,7.95
2022-12-26T11:18:28.071Z,10.60
2022-12-26T11:21:20.437Z,6.38
2022-12-26T11:23:53.908Z,8.00
2022-12-26T11:26:27.949Z,10.48
2022-12-26T11:29:17.589Z,6.57
2022-12-26T11:32:01.398Z,6.20
2022-12-26T11:34:43.672Z,7.13
2022-12-26T11:37:43.016Z,8.30
2022-12-26T11:40:29.720Z,5.63
2022-12-26T11:43:04.379Z,5.87
2022-12-26T11:45:42.392Z,6.18
2022-12-26T11:48:23.331Z,6.53
2022-12-26T11:50:54.980Z,5.22
2022-12-26T11:53:26.446Z,7.85
2022-12-26T11:56:03.828Z,5.95
2022-12-26T11:58:35.971Z,5.00
2022-12-26T12:01:12.348Z,5.27
2022-12-26T12:03:49.589Z,4.97
2022-12-26T12:06:43.385Z,7.15
2022-12-26T12:09:29.541Z,7.07
2022-12-26T12:12:10.225Z,7.53
2022-12-26T12:15:08.001Z,5.30
2022-12-26T12:18:01.172Z,5.90
2022-12-26T12:20:37.770Z,8.82
2022-12-26T12:23:54.645Z,7.20
2022-12-26T12:26:42.931Z,6.55
2022-12-26T12:29:28.206Z,10.07
2022-12-26T12:32:13.725Z,8.13
2022-12-26T12:35:07.471Z,6.63
2022-12-26T12:37:44.656Z,10.20
2022-12-26T12:40:43.624Z,6.72
2022-12-26T12:43:18.754Z,6.53
2022-12-26T12:45:50.165Z,6.03
2022-12-26T12:48:49.255Z,8.23
2022-12-26T12:51:33.226Z,9.60
2022-12-26T12:54:23.254Z,10.38
2022-12-26T12:57:02.274Z,7.05
2022-12-26T12:59:58.432Z,7.75
2022-12-26T13:02:40.010Z,7.63
2022-12-26T13:05:39.222Z,6.35
2022-12-26T13:08:26.117Z,5.85
2022-12-26T13:11:06.423Z,6.75
2022-12-26T13:13:53.749Z,6.35
2022-12-26T13:16:31.849Z,7.95
2022-12-26T13:19:07.287Z,9.68
2022-12-26T13:21:40.975Z,7.65
2022-12-26T13:24:19.265Z,8.73
2022-12-26T13:27:14.229Z,5.70
2022-12-26T13:29:47.364Z,5.90
2022-12-26T13:32:30.936Z,5.53
2022-12-26T13:35:02.696Z,8.55
2022-12-26T13:37:40.043Z,9.27
2022-12-26T13:40:18.040Z,7.20
2022-12-26T13:42:59.524Z,8.35
2022-12-26T13:45:37.270Z,7.53
2022-12-26T13:48:17.573Z,6.80
2022-12-26T13:50:55.165Z,6.65
2022-12-26T13:53:33.294Z,7.18
2022-12-26T13:56:34.869Z,5.90
2022-12-26T13:59:44.547Z,9.50
2022-12-26T14:03:16.110Z,9.60
2022-12-26T14:05:40.667Z,7.10
2022-12-26T14:08:33.196Z,8.00
2022-12-26T14:11:30.152Z,5.05
2022-12-26T14:14:01.534Z,6.90
2022-12-26T14:16:58.959Z,11.45
2022-12-26T14:20:07.371Z,9.15
2022-12-26T14:22:57.577Z,10.23
2022-12-26T14:25:38.181Z,7.38
2022-12-26T14:28:28.025Z,10.17
2022-12-26T14:31:29.030Z,10.00
2022-12-26T14:34:28.588Z,8.25
2022-12-26T14:37:39.047Z,10.52
2022-12-26T14:40:37.465Z,9.85
2022-12-26T14:43:30.339Z,12.93
2022-12-26T14:46:04.904Z,12.80
2022-12-26T14:48:36.299Z,7.03
2022-12-26T14:51:19.596Z,9.73
2022-12-26T14:54:17.573Z,8.15
2022-12-26T14:56:51.049Z,15.48
2022-12-26T14:59:34.363Z,13.27
2022-12-26T15:02:31.466Z,12.80
2022-12-26T15:05:08.349Z,10.90
2022-12-26T15:08:13.513Z,10.00
2022-12-26T15:11:29.459Z,10.07
2022-12-26T15:14:49.184Z,11.87
2022-12-26T15:17:29.473Z,18.27
2022-12-26T15:20:28.797Z,14.63
2022-12-26T15:23:09.051Z,10.90
2022-12-26T15:25:56.322Z,11.55
2022-12-26T15:28:36.504Z,11.88
2022-12-26T15:31:36.283Z,14.60
2022-12-26T15:34:43.227Z,11.93
2022-12-26T15:37:22.494Z,8.30
2022-12-26T15:40:15.037Z,9.10
2022-12-26T15:43:04.989Z,12.35
2022-12-26T15:45:53.731Z,9.98
2022-12-26T15:48:35.889Z,9.30
2022-12-26T15:51:18.415Z,9.40
2022-12-26T15:54:00.857Z,9.27
2022-12-26T15:57:11.752Z,9.80
2022-12-26T15:59:52.077Z,7.97
2022-12-26T16:02:26.394Z,11.07
2022-12-26T16:05:24.011Z,14.02
2022-12-26T16:08:37.275Z,11.88
2022-12-26T16:11:18.937Z,10.77
2022-12-26T16:14:01.175Z,12.52
2022-12-26T16:16:36.291Z,9.23
2022-12-26T16:19:22.661Z,12.27
2022-12-26T16:21:59.147Z,9.98
2022-12-26T16:24:33.871Z,10.55
2022-12-26T16:27:07.860Z,11.25
2022-12-26T16:29:47.354Z,8.48
2022-12-26T16:32:22.016Z,12.13
2022-12-26T16:34:53.717Z,9.05
2022-12-26T16:37:26.776Z,12.68
2022-12-26T16:40:17.860Z,6.90
2022-12-26T16:43:23.660Z,8.05
2022-12-26T16:46:01.709Z,10.00
2022-12-26T16:48:35.918Z,12.18
2022-12-26T16:51:39.073Z,10.40
2022-12-26T16:54:24.478Z,7.90
2022-12-26T16:57:12.530Z,9.63
2022-12-26T16:59:54.474Z,12.10
2022-12-26T17:02:34.449Z,9.60
2022-12-26T17:05:16.260Z,7.40
2022-12-26T17:07:50.706Z,10.80
2022-12-26T17:10:26.958Z,6.90
2022-12-26T17:13:03.384Z,8.02
2022-12-26T17:15:47.755Z,7.03
2022-12-26T17:18:41.066Z,6.47
2022-12-26T17:21:20.618Z,10.32
2022-12-26T17:24:00.942Z,6.82
2022-12-26T17:26:32.844Z,8.25
2022-12-26T17:29:04.794Z,8.63
2022-12-26T17:31:42.989Z,7.78
2022-12-26T17:34:24.559Z,7.32
2022-12-26T17:40:02.751Z,6.43
2022-12-26T17:42:51.739Z,10.63
2022-12-26T17:45:25.874Z,10.35
2022-12-26T17:47:58.310Z,6.43
2022-12-26T17:50:40.638Z,8.23
2022-12-26T17:53:27.512Z,6.95
2022-12-26T17:56:01.526Z,5.78
2022-12-26T17:58:34.378Z,5.70
2022-12-26T18:01:06.031Z,7.25
2022-12-26T18:03:37.711Z,6.45
2022-12-26T18:06:14.479Z,7.97
2022-12-26T18:08:46.036Z,8.98
2022-12-26T18:11:17.551Z,8.65
2022-12-26T18:13:48.973Z,9.35
2022-12-26T18:16:20.444Z,7.90
2022-12-26T18:18:52.145Z,6.45
2022-12-26T18:21:23.590Z,10.02
2022-12-26T18:23:54.995Z,9.70
2022-12-26T18:26:29.133Z,7.55
2022-12-26T18:29:00.885Z,7.95
2022-12-26T18:31:32.423Z,6.90
2022-12-26T18:34:04.001Z,7.32
2022-12-26T18:36:38.068Z,9.70
2022-12-26T18:39:15.107Z,8.18
2022-12-26T18:41:46.527Z,8.50
2022-12-26T18:44:17.984Z,5.28
2022-12-26T18:46:49.465Z,9.68
2022-12-26T18:49:20.882Z,11.75
2022-12-26T18:51:52.319Z,10.23
2022-12-26T18:54:23.818Z,9.18
2022-12-26T18:56:55.315Z,9.30
2022-12-26T18:59:26.731Z,10.40
2022-12-26T19:01:58.351Z,9.67
2022-12-26T19:04:29.822Z,9.20
2022-12-26T19:07:01.287Z,8.20
2022-12-26T19:09:32.691Z,7.43
2022-12-26T19:12:07.625Z,8.95
2022-12-26T19:14:39.449Z,9.23
2022-12-26T19:17:10.915Z,8.07
2022-12-26T19:19:43.712Z,13.55
2022-12-26T19:22:15.160Z,11.47
2022-12-26T19:24:46.631Z,9.88
2022-12-26T19:27:18.084Z,8.30
2022-12-26T19:29:49.478Z,8.90
2022-12-26T19:32:20.965Z,12.13
2022-12-26T19:34:52.346Z,13.40
2022-12-26T19:37:23.945Z,9.88
2022-12-26T19:39:55.391Z,9.00
2022-12-26T19:42:27.014Z,9.30
2022-12-26T19:44:58.397Z,12.35
2022-12-26T19:47:29.852Z,12.13
2022-12-26T19:50:01.964Z,9.40
2022-12-26T19:52:33.391Z,9.43
2022-12-26T19:55:06.821Z,8.75
2022-12-26T19:57:38.362Z,10.98
2022-12-26T20:00:10.614Z,12.05
2022-12-26T20:02:42.147Z,11.35
2022-12-26T20:05:13.617Z,10.68
2022-12-26T20:07:45.022Z,12.88
2022-12-26T20:10:16.534Z,11.77
2022-12-26T20:12:47.942Z,10.48
2022-12-26T20:15:19.446Z,10.60
2022-12-26T20:17:50.949Z,10.50
2022-12-26T20:20:22.405Z,11.25
2022-12-26T20:22:53.865Z,10.45
2022-12-26T20:25:25.302Z,11.63
2022-12-26T20:27:56.751Z,10.60
2022-12-26T20:30:28.212Z,10.77
2022-12-26T20:32:59.668Z,14.77
2022-12-26T20:35:31.132Z,13.20
2022-12-26T20:38:02.615Z,12.73
2022-12-26T20:40:34.046Z,12.35
2022-12-26T20:43:05.491Z,13.57
2022-12-26T20:45:37.785Z,12.32
2022-12-26T20:48:09.239Z,13.83
2022-12-26T20:50:40.662Z,13.73
2022-12-26T20:53:12.090Z,10.82
2022-12-26T20:55:43.508Z,16.23
2022-12-26T20:58:14.952Z,14.88
2022-12-26T21:00:56.994Z,13.88
2022-12-26T21:03:28.978Z,14.15
2022-12-26T21:06:16.770Z,12.80
2022-12-26T21:08:50.685Z,15.63
2022-12-26T21:11:25.692Z,11.67
2022-12-26T21:14:05.940Z,7.77
2022-12-26T21:16:50.355Z,8.55
2022-12-26T21:19:24.238Z,13.48
2022-12-26T21:21:56.415Z,9.88
2022-12-26T21:24:31.705Z,8.95
2022-12-26T21:27:03.360Z,11.35
2022-12-26T21:29:35.596Z,12.20
2022-12-26T21:32:07.178Z,12.20
2022-12-26T21:34:38.645Z,14.70
2022-12-26T21:37:10.054Z,8.98
2022-12-26T21:39:42.152Z,11.82
2022-12-26T21:42:13.569Z,15.15
2022-12-26T21:44:45.018Z,11.13
2022-12-26T21:47:16.479Z,15.20
2022-12-26T21:49:47.916Z,10.23
2022-12-26T21:52:19.347Z,11.30
2022-12-26T21:54:50.729Z,10.15
2022-12-26T21:57:22.581Z,14.95
2022-12-26T21:59:54.028Z,12.48
2022-12-26T22:02:37.407Z,11.48
2022-12-26T22:05:09.692Z,16.38
2022-12-26T22:07:41.480Z,13.30
2022-12-26T22:10:13.824Z,15.07
2022-12-26T22:12:45.283Z,11.63
2022-12-26T22:15:16.855Z,13.63
2022-12-26T22:17:48.312Z,12.60
2022-12-26T22:20:19.780Z,12.85
2022-12-26T22:22:51.347Z,12.33
2022-12-26T22:25:22.856Z,11.80
2022-12-26T22:27:54.311Z,12.97
2022-12-26T22:30:25.887Z,15.07
2022-12-26T22:32:57.280Z,13.63
2022-12-26T22:35:28.735Z,13.30
2022-12-26T22:38:00.288Z,11.07
2022-12-26T22:40:31.874Z,12.57
2022-12-26T22:43:03.377Z,13.27
2022-12-26T22:45:34.886Z,15.32
2022-12-26T22:48:06.391Z,12.43
2022-12-26T22:50:37.903Z,13.65
2022-12-26T22:53:09.392Z,11.73
2022-12-26T22:55:52.569Z,14.73
2022-12-26T22:58:24.206Z,11.75
2022-12-26T23:00:56.069Z,14.05
2022-12-26T23:03:28.060Z,14.00
2022-12-26T23:05:59.735Z,12.68
2022-12-26T23:08:31.562Z,13.00
2022-12-26T23:11:03.195Z,17.10
2022-12-26T23:13:34.870Z,12.55
2022-12-26T23:16:44.843Z,14.52
2022-12-26T23:19:25.636Z,18.58
2022-12-26T23:22:00.002Z,12.43
2022-12-26T23:24:33.166Z,15.98
2022-12-26T23:27:11.763Z,14.82
2022-12-26T23:29:43.866Z,14.38
2022-12-26T23:32:15.248Z,14.70
2022-12-26T23:34:46.706Z,11.80
2022-12-26T23:37:18.148Z,11.50
2022-12-26T23:39:49.617Z,16.25
2022-12-26T23:42:21.071Z,13.48
2022-12-26T23:44:52.545Z,16.33
2022-12-26T23:47:24.007Z,19.20
2022-12-26T23:49:55.456Z,19.65
2022-12-26T23:52:30.602Z,16.20
2022-12-26T23:55:02.241Z,15.82
2022-12-26T23:57:33.692Z,11.15
